Terminal Aerodrome Forecast
Issued by NWS

Home | Current Version | Previous Version | Text Only | Print | Product List | Glossary On
Versions: 1 2 3 4 5 6 7 8 9 10 11 12 13 14
000
FTUS41 KBTV 231259 AAA
TAFMPV
TAF AMD
KMPV 231259Z 2313/2412 VRB03KT 4SM -SHRA SCT025 OVC050
      TEMPO 2313/2314 3SM -TSRA BR BKN025CB
     FM231500 21014G21KT P6SM VCSH BKN070
     FM240200 19007KT P6SM VCSH OVC035
     FM240500 23006KT P6SM OVC015
     FM241100 29008KT P6SM BKN008=

USA.gov is the U.S. government's official web portal to all federal, state and local government web resources and services.